world map with HDY marked

HDY - Airport

This information may not be accurate or current and is not valid for navigation or flight planning. No warranty of fitness for any purpose is made or implied.

flag of Thailand

Donate via PayPal

Additional information is available on the NEW Great Circle Mapper

Location
City:  Hat Yai, Songkhla, Thailand
Name:Hat Yai International Airport
ICAO / IATA:VTSS / HDY

Details
Type:Airport (Aerodrome, Airfield)
Use:Public/Civil
Latitude:6°56'00"N (6.933206)
Longitude:100°23'35"E (100.392975)
Datum:WGS 1984
Elevation:90 ft (27 m)
Runways:1
Longest:10007 × 148 ft (3050 × 45 m)

Time
Timezone:UTC+7 (DST+9)
Local Time:

Weather
METAR:VTSS  041400Z 05006KT 9999 FEW020 27/24 Q1014 NOSIG
TAF:VTSS  041100Z 0412/0512 06005KT 9999 FEW020

Related Locations
Nearby:
Farthest:SPYO: 12448 mi / 20033 km
Pacasmayo [Pacasmayo Airport], LAL, PE

Find:

   beyond  
but within

Other Information
Maps:
Links:
Sources:

  


 


Great Circle Mapper   Great Circle Mapper
Great Circle Mapper FAQ   Great Circle Mapper FAQ
  Karl's Home Page
KLSē   KLSē Home
   GC on Facebook
Airlines of the World   Airlines of the World
Donate via PayPal


Copyright © 2004-2019, Karl L. Swartz. All rights reserved.
All trademarks mentioned herein belong to their respective owners.

Please see credits for attribution and copyright information.

Karl Swartz <karl@kls2.com>
  Powered by FreeBSD
Valid HTML 4.01!
Labeled with ICRA
hCard Microformat
Geo Microformat